首页
METAR-TAF:

METAR-TAF

机场 :

Carbon County Regional Airport (Buck Davis Field)

普赖斯, 犹他州, 美国

纬度: 39-36-33N, 经度: 110-45-17W, 海拔: 1805米

当前天气观测

该预报发布于32分钟前的08:53 UTC
风速6节,风向东北
温度 4°C
湿度 60%
气压 1009 hPa
能見度: 16.1公里
天空无云

METAR: KPUC 010853Z AUTO 05006KT 10SM CLR 04/M03 A2981 RMK AO2 SLP073 T00441033 58009

时间: 03:25 (09:25 UTC)


TAF: 丢失

超过4000个机场的气象观测和天气预报(METAR&TAF报告)。

可查询的气象台以黄色和红色小点在地图上表示。

将鼠标移到小点上方,可查看气象台名称。

然后点击查看天气观测和预报。

如需切换地图:点击带黑十字的绿色按钮放大地图;点击带横线的绿色按钮缩小地图;或者点击绿色箭头查看邻近地区的地图。


METAR-TAF: